Time;durP1;ratioP1;P1;durP2;ratioP2;P2;SDS_P1;SDS_P2;PMS_P1;PMS_P2;Temp;Humidity;BMP_temperature;BMP_pressure;BME280_temperature;BME280_humidity;BME280_pressure;Samples;Min_cycle;Max_cycle;Signal;HPM_P1;HPM_P2
2021/06/22 00:01:55;;;;;;;1.53;0.97;;;16.30;95.40;;;;;;5001017;28;20484;-81
2021/06/22 00:04:22;;;;;;;1.50;1.00;;;16.30;95.30;;;;;;5007900;28;20465;-81
2021/06/22 00:06:50;;;;;;;1.50;1.00;;;16.30;95.50;;;;;;4999921;28;20485;-80
2021/06/22 00:09:17;;;;;;;1.50;0.97;;;16.20;95.60;;;;;;5011236;28;20489;-81
2021/06/22 00:11:44;;;;;;;1.50;0.97;;;16.30;95.50;;;;;;5006203;28;20857;-82
2021/06/22 00:14:10;;;;;;;1.50;1.00;;;16.30;95.50;;;;;;5008647;28;20453;-81
2021/06/22 00:16:37;;;;;;;1.50;0.90;;;16.20;95.80;;;;;;4996397;28;20484;-82
2021/06/22 00:19:04;;;;;;;1.50;0.93;;;16.20;95.70;;;;;;5006412;28;20489;-81
2021/06/22 00:21:31;;;;;;;1.50;1.00;;;16.30;96.00;;;;;;4995910;28;20527;-80
2021/06/22 00:23:59;;;;;;;1.50;0.90;;;16.20;95.90;;;;;;5004519;28;20467;-81
2021/06/22 00:26:26;;;;;;;1.50;1.00;;;16.20;96.10;;;;;;4989385;28;20472;-82
2021/06/22 00:28:52;;;;;;;2.47;2.20;;;16.20;96.20;;;;;;5010978;28;20507;-79
2021/06/22 00:31:19;;;;;;;1.50;1.00;;;16.30;96.60;;;;;;4997564;28;20476;-80
2021/06/22 00:33:46;;;;;;;1.53;1.00;;;16.20;96.30;;;;;;5001064;28;20461;-81
2021/06/22 00:36:13;;;;;;;1.50;1.00;;;16.20;96.20;;;;;;4990056;28;20884;-81
2021/06/22 00:38:40;;;;;;;1.57;1.10;;;16.10;96.40;;;;;;5008568;28;20461;-80
2021/06/22 00:41:08;;;;;;;1.50;1.00;;;16.10;96.20;;;;;;4999330;28;20487;-81
2021/06/22 00:43:38;;;;;;;1.50;1.00;;;16.10;96.20;;;;;;5012582;28;20457;-81
2021/06/22 00:46:04;;;;;;;1.50;1.00;;;16.10;96.40;;;;;;4989454;28;20472;-81
2021/06/22 00:48:31;;;;;;;1.53;1.00;;;16.10;96.20;;;;;;5011469;28;20463;-80
2021/06/22 00:50:59;;;;;;;2.30;1.67;;;16.10;96.20;;;;;;4985980;28;20477;-79
2021/06/22 00:53:26;;;;;;;1.50;1.00;;;16.10;96.00;;;;;;5013435;28;20465;-80
2021/06/22 00:55:53;;;;;;;1.50;1.00;;;16.10;96.40;;;;;;4984941;28;20476;-79
2021/06/22 00:58:22;;;;;;;1.50;1.00;;;16.10;96.40;;;;;;5008644;28;20473;-81
2021/06/22 01:00:49;;;;;;;1.50;1.00;;;16.10;96.40;;;;;;4995433;28;20468;-78
2021/06/22 01:03:16;;;;;;;1.50;0.90;;;16.10;96.40;;;;;;5013100;28;20480;-82
2021/06/22 01:05:42;;;;;;;1.50;1.00;;;16.10;96.40;;;;;;5000104;28;20848;-79
2021/06/22 01:08:11;;;;;;;1.50;1.00;;;16.10;96.70;;;;;;5015146;28;20480;-81
2021/06/22 01:10:38;;;;;;;1.50;1.00;;;16.10;96.40;;;;;;5002969;28;20536;-81
2021/06/22 01:13:05;;;;;;;1.50;1.00;;;16.10;96.40;;;;;;5007248;28;20488;-81
2021/06/22 01:15:33;;;;;;;1.50;1.00;;;16.10;97.00;;;;;;4991756;28;20475;-83
2021/06/22 01:18:02;;;;;;;1.50;0.93;;;16.00;97.40;;;;;;5003173;28;20483;-79
2021/06/22 01:20:31;;;;;;;1.50;1.00;;;16.00;97.90;;;;;;5004513;28;20473;-82
2021/06/22 01:23:00;;;;;;;1.50;1.00;;;16.00;98.10;;;;;;5008148;28;20478;-81
2021/06/22 01:25:27;;;;;;;1.50;0.90;;;15.90;98.20;;;;;;5008676;28;20489;-80
2021/06/22 01:27:55;;;;;;;1.50;0.93;;;15.90;98.20;;;;;;5001284;28;20484;-80
2021/06/22 01:30:23;;;;;;;1.50;1.00;;;15.90;98.20;;;;;;4996033;28;20836;-81
2021/06/22 01:32:50;;;;;;;1.50;1.00;;;15.80;98.20;;;;;;5002372;28;20488;-81
2021/06/22 01:35:17;;;;;;;1.50;1.00;;;15.80;98.20;;;;;;5000663;28;20559;-81
2021/06/22 01:37:56;;;;;;;1.50;1.00;;;15.80;98.20;;;;;;4997608;28;20476;-83
2021/06/22 01:40:25;;;;;;;1.50;1.00;;;15.80;98.20;;;;;;4993069;28;20487;-82
2021/06/22 01:42:52;;;;;;;1.60;1.20;;;15.80;98.20;;;;;;4995577;28;20484;-82
2021/06/22 01:45:19;;;;;;;1.50;1.00;;;15.80;98.20;;;;;;4993118;28;20469;-82
2021/06/22 01:47:46;;;;;;;1.50;1.00;;;15.80;98.20;;;;;;5002599;28;20491;-80
2021/06/22 01:50:15;;;;;;;1.53;1.00;;;15.80;98.20;;;;;;4998072;28;20981;-83
2021/06/22 01:52:43;;;;;;;1.50;1.10;;;15.70;98.20;;;;;;4999688;28;20498;-83
2021/06/22 01:57:56;;;;;;;1.50;0.90;;;15.70;98.10;;;;;;4997313;28;21021;-83
2021/06/22 02:00:23;;;;;;;1.53;1.10;;;15.70;97.90;;;;;;4997296;28;20568;-81
2021/06/22 02:02:50;;;;;;;1.50;1.00;;;15.70;98.10;;;;;;4995816;28;21196;-81
2021/06/22 02:05:17;;;;;;;1.53;1.00;;;15.80;98.00;;;;;;4997611;28;20962;-83
2021/06/22 02:07:44;;;;;;;1.50;1.00;;;15.80;97.70;;;;;;5005526;28;20480;-81
2021/06/22 02:10:11;;;;;;;1.50;1.00;;;15.80;97.70;;;;;;4997239;28;20484;-80
2021/06/22 02:12:40;;;;;;;1.50;1.00;;;15.70;97.70;;;;;;5004266;28;20571;-79
2021/06/22 02:15:10;;;;;;;1.50;1.00;;;15.70;98.00;;;;;;5002802;28;20852;-81
2021/06/22 02:17:37;;;;;;;1.50;1.00;;;15.70;98.20;;;;;;5008287;28;20476;-80
2021/06/22 02:20:04;;;;;;;1.50;1.00;;;15.60;98.20;;;;;;4999950;28;20492;-79
2021/06/22 02:22:31;;;;;;;1.50;1.00;;;15.60;98.20;;;;;;5002566;28;20480;-81
2021/06/22 02:24:58;;;;;;;1.53;1.00;;;15.60;98.20;;;;;;5003386;28;20459;-81
2021/06/22 02:27:27;;;;;;;1.50;1.00;;;15.60;98.20;;;;;;5007129;28;20479;-82
2021/06/22 02:29:54;;;;;;;1.50;1.00;;;15.60;98.20;;;;;;5000307;28;20473;-80
2021/06/22 02:32:22;;;;;;;1.50;1.00;;;15.60;98.20;;;;;;4997907;28;20483;-80
2021/06/22 02:34:50;;;;;;;1.50;1.00;;;15.60;98.00;;;;;;5001597;28;20552;-81
2021/06/22 02:37:17;;;;;;;1.50;1.00;;;15.50;98.00;;;;;;5004227;28;20840;-82
2021/06/22 02:39:45;;;;;;;1.57;1.10;;;15.50;98.10;;;;;;4995857;28;20488;-79
2021/06/22 02:42:12;;;;;;;1.50;1.00;;;15.40;98.20;;;;;;4993830;28;20491;-83
2021/06/22 02:44:39;;;;;;;1.50;1.00;;;15.40;98.20;;;;;;4998964;28;20547;-83
2021/06/22 02:47:06;;;;;;;1.57;1.03;;;15.40;98.20;;;;;;5002743;28;20861;-81
2021/06/22 02:49:34;;;;;;;1.50;1.00;;;15.40;98.10;;;;;;5001882;28;20488;-81
2021/06/22 02:52:01;;;;;;;1.50;1.00;;;15.40;98.20;;;;;;5008702;28;20490;-80
2021/06/22 02:54:28;;;;;;;1.50;1.00;;;15.40;98.20;;;;;;5001287;28;20465;-80
2021/06/22 02:56:54;;;;;;;1.57;1.10;;;15.40;98.00;;;;;;5005901;28;20488;-79
2021/06/22 02:59:21;;;;;;;1.53;1.10;;;15.40;98.20;;;;;;5002622;28;20481;-82
2021/06/22 03:01:48;;;;;;;1.50;1.00;;;15.30;98.20;;;;;;5000691;28;20476;-80
2021/06/22 03:04:15;;;;;;;1.50;1.00;;;15.30;98.20;;;;;;5008702;28;20472;-82
2021/06/22 03:06:43;;;;;;;1.50;1.00;;;15.30;98.20;;;;;;4975875;28;20508;-78
2021/06/22 03:09:10;;;;;;;1.57;1.10;;;15.30;98.20;;;;;;4985814;28;20482;-78
2021/06/22 03:11:37;;;;;;;1.50;0.90;;;15.20;98.20;;;;;;4972429;28;20549;-80
2021/06/22 03:14:04;;;;;;;1.53;1.03;;;15.20;98.20;;;;;;4989083;28;20477;-80
2021/06/22 03:16:31;;;;;;;1.53;1.10;;;15.20;98.20;;;;;;4973638;28;20480;-79
2021/06/22 03:18:58;;;;;;;1.50;1.00;;;15.20;98.20;;;;;;4992011;28;20476;-81
2021/06/22 03:21:24;;;;;;;1.50;1.00;;;15.20;98.20;;;;;;4977117;28;20477;-77
2021/06/22 03:23:52;;;;;;;1.50;1.00;;;15.10;98.20;;;;;;4985735;28;20820;-81
2021/06/22 03:26:19;;;;;;;1.50;1.00;;;15.10;98.20;;;;;;4968942;28;20476;-82
2021/06/22 03:28:46;;;;;;;1.57;1.00;;;15.10;98.20;;;;;;4988372;28;20477;-83
2021/06/22 03:31:13;;;;;;;1.57;1.07;;;15.10;98.20;;;;;;4969910;28;20479;-80
2021/06/22 03:33:40;;;;;;;1.53;1.00;;;15.10;98.20;;;;;;4989092;28;20474;-81
2021/06/22 03:36:07;;;;;;;1.50;0.90;;;15.10;98.20;;;;;;4974373;28;20475;-80
2021/06/22 03:38:34;;;;;;;1.50;1.00;;;15.10;98.20;;;;;;4986978;28;20474;-81
2021/06/22 03:41:02;;;;;;;1.53;1.00;;;15.10;98.20;;;;;;4969882;28;20469;-77
2021/06/22 03:43:29;;;;;;;1.60;1.00;;;15.00;98.20;;;;;;4993287;28;20553;-82
2021/06/22 03:45:56;;;;;;;1.60;1.27;;;15.00;98.20;;;;;;4973354;28;20890;-81
2021/06/22 03:48:22;;;;;;;1.53;1.00;;;15.00;98.20;;;;;;4989196;28;20470;-81
2021/06/22 03:50:49;;;;;;;1.50;1.10;;;15.00;98.20;;;;;;4972234;28;20461;-81
2021/06/22 03:53:16;;;;;;;1.60;1.00;;;15.10;98.20;;;;;;4995312;28;20508;-82
2021/06/22 03:55:43;;;;;;;1.60;1.00;;;15.00;98.20;;;;;;4983733;28;20461;-79
2021/06/22 03:58:11;;;;;;;1.50;1.00;;;15.00;98.20;;;;;;4980023;28;20562;-78
2021/06/22 04:00:38;;;;;;;1.60;1.00;;;15.00;98.20;;;;;;4975481;28;20492;-81
2021/06/22 04:03:05;;;;;;;1.57;1.00;;;15.00;98.20;;;;;;4980285;28;20522;-82
2021/06/22 04:05:32;;;;;;;1.50;1.00;;;15.00;98.20;;;;;;4993346;28;20457;-79
2021/06/22 04:08:00;;;;;;;1.50;1.00;;;15.00;98.20;;;;;;4985599;28;20994;-82
2021/06/22 04:10:27;;;;;;;1.57;1.00;;;14.90;98.20;;;;;;4979018;28;20512;-82
2021/06/22 04:12:54;;;;;;;1.50;1.07;;;14.90;98.20;;;;;;4981728;28;21259;-80
2021/06/22 04:15:22;;;;;;;1.50;0.97;;;14.90;98.20;;;;;;4982026;28;20468;-82
2021/06/22 04:17:49;;;;;;;1.50;1.00;;;14.90;98.20;;;;;;4982321;28;20521;-82
2021/06/22 04:20:17;;;;;;;1.50;1.00;;;14.90;98.20;;;;;;4974756;28;20492;-82
2021/06/22 04:22:44;;;;;;;2.57;2.03;;;14.90;98.20;;;;;;4982460;28;20547;-79
2021/06/22 04:25:12;;;;;;;1.50;1.00;;;15.00;97.90;;;;;;4980779;28;20461;-83
2021/06/22 04:27:38;;;;;;;1.50;0.97;;;15.00;97.80;;;;;;4977320;28;20500;-81
2021/06/22 04:30:06;;;;;;;1.60;1.37;;;15.00;98.00;;;;;;4982413;28;20481;-82
2021/06/22 04:32:35;;;;;;;1.50;1.00;;;15.10;97.90;;;;;;4977005;28;20500;-83
2021/06/22 04:35:01;;;;;;;1.50;1.00;;;15.10;97.70;;;;;;4982969;28;20472;-82
2021/06/22 04:37:28;;;;;;;1.50;1.00;;;15.00;97.50;;;;;;4982213;28;20473;-83
2021/06/22 04:39:55;;;;;;;1.50;1.00;;;15.00;97.70;;;;;;4977894;28;20493;-82
2021/06/22 04:42:22;;;;;;;1.57;1.10;;;15.00;97.70;;;;;;4985442;28;20481;-81
2021/06/22 04:44:49;;;;;;;1.50;1.00;;;15.00;97.80;;;;;;4980423;28;20468;-82
2021/06/22 04:47:16;;;;;;;1.53;1.00;;;14.90;97.60;;;;;;4982508;28;20480;-83
2021/06/22 04:49:44;;;;;;;1.50;1.10;;;14.90;97.90;;;;;;4983944;28;20481;-80
2021/06/22 04:52:11;;;;;;;1.60;1.10;;;14.90;97.80;;;;;;4989653;28;20488;-83
2021/06/22 04:54:39;;;;;;;1.50;1.00;;;15.00;98.10;;;;;;4980878;28;20468;-81
2021/06/22 04:57:06;;;;;;;1.50;1.00;;;15.00;97.90;;;;;;4972885;28;20485;-82
2021/06/22 04:59:34;;;;;;;1.60;1.30;;;15.00;97.90;;;;;;4976687;28;20497;-82
2021/06/22 05:02:01;;;;;;;1.57;1.03;;;15.00;97.80;;;;;;4974585;28;20485;-83
2021/06/22 05:04:28;;;;;;;1.50;1.00;;;15.00;97.80;;;;;;4979586;28;20480;-80
2021/06/22 05:06:56;;;;;;;1.50;1.03;;;15.00;97.90;;;;;;4980349;28;20504;-83
2021/06/22 05:09:23;;;;;;;3.73;3.53;;;15.00;98.00;;;;;;4982792;28;20525;-82
2021/06/22 05:11:51;;;;;;;1.50;1.00;;;15.10;98.10;;;;;;4974786;28;20489;-82
2021/06/22 05:14:18;;;;;;;1.57;1.10;;;15.10;97.90;;;;;;4983580;28;20488;-80
2021/06/22 05:16:45;;;;;;;1.53;1.10;;;15.20;98.00;;;;;;4971965;28;20481;-81
2021/06/22 05:19:11;;;;;;;1.50;1.00;;;15.30;97.70;;;;;;4985974;28;20481;-84
2021/06/22 05:21:39;;;;;;;1.50;1.10;;;15.30;97.70;;;;;;4971674;28;20548;-84
2021/06/22 05:24:07;;;;;;;1.70;1.30;;;15.30;97.70;;;;;;4985947;28;20466;-81
2021/06/22 05:26:34;;;;;;;1.50;1.00;;;15.40;97.40;;;;;;4979172;28;20503;-83
2021/06/22 05:29:01;;;;;;;1.50;1.00;;;15.40;97.40;;;;;;4988507;28;20544;-83
2021/06/22 05:31:31;;;;;;;1.50;1.00;;;15.50;97.50;;;;;;4978262;28;20481;-84
2021/06/22 05:33:58;;;;;;;1.50;1.00;;;15.50;97.30;;;;;;4987224;28;20574;-83
2021/06/22 05:36:25;;;;;;;1.50;1.00;;;15.60;97.30;;;;;;4975502;28;20473;-83
2021/06/22 05:38:52;;;;;;;1.50;1.10;;;15.60;97.00;;;;;;4985396;28;20573;-80
2021/06/22 05:41:20;;;;;;;1.50;1.00;;;15.50;97.20;;;;;;4975877;28;20481;-83
2021/06/22 05:43:47;;;;;;;1.50;1.00;;;15.50;97.40;;;;;;4991347;28;20480;-82
2021/06/22 05:46:14;;;;;;;1.50;1.00;;;15.40;98.20;;;;;;4973481;28;20578;-81
2021/06/22 05:48:41;;;;;;;1.50;1.00;;;15.50;98.20;;;;;;4990376;28;20899;-83
2021/06/22 05:51:08;;;;;;;1.50;1.00;;;15.40;98.20;;;;;;4973749;28;20562;-83
2021/06/22 05:53:35;;;;;;;1.53;1.00;;;15.40;98.20;;;;;;4991028;28;20517;-82
2021/06/22 05:56:02;;;;;;;1.53;1.03;;;15.40;98.20;;;;;;4978521;28;20472;-83
2021/06/22 05:58:30;;;;;;;1.50;1.00;;;15.40;98.20;;;;;;4992629;28;21100;-82
2021/06/22 06:00:56;;;;;;;1.60;1.10;;;15.50;98.20;;;;;;4968213;28;20477;-83
2021/06/22 06:03:23;;;;;;;1.50;1.00;;;15.50;98.20;;;;;;4994260;28;20469;-83
2021/06/22 06:05:50;;;;;;;1.53;1.00;;;15.50;98.20;;;;;;4972269;28;20473;-81
2021/06/22 06:08:17;;;;;;;1.53;1.00;;;15.50;98.20;;;;;;4993802;28;20539;-84
2021/06/22 06:10:44;;;;;;;1.50;1.00;;;15.50;98.20;;;;;;4977204;28;20517;-85
2021/06/22 06:13:10;;;;;;;1.57;1.00;;;15.40;98.20;;;;;;4969667;28;20492;-83
2021/06/22 06:15:39;;;;;;;1.57;1.10;;;15.50;98.20;;;;;;4977756;28;20553;-83
2021/06/22 06:18:06;;;;;;;1.57;1.00;;;15.50;98.20;;;;;;4979313;28;20484;-82
2021/06/22 06:20:33;;;;;;;1.50;1.00;;;15.50;98.20;;;;;;4978290;28;20840;-84
2021/06/22 06:22:59;;;;;;;1.50;1.00;;;15.40;98.20;;;;;;4988555;28;20483;-80
2021/06/22 06:25:26;;;;;;;1.57;1.00;;;15.40;98.20;;;;;;4987958;28;20959;-82
2021/06/22 06:27:56;;;;;;;1.50;1.00;;;15.30;98.20;;;;;;4990181;28;20487;-83
2021/06/22 06:30:26;;;;;;;1.60;1.10;;;15.30;98.20;;;;;;4979147;28;21004;-82
2021/06/22 06:32:55;;;;;;;1.50;1.00;;;15.30;98.20;;;;;;4991843;28;20554;-83
2021/06/22 06:35:23;;;;;;;1.50;1.00;;;15.40;98.20;;;;;;4985968;28;20589;-84
2021/06/22 06:37:50;;;;;;;1.53;1.00;;;15.40;98.20;;;;;;4987477;28;20559;-83
2021/06/22 06:40:17;;;;;;;1.50;1.00;;;15.40;98.20;;;;;;4976701;28;20497;-83
2021/06/22 06:42:44;;;;;;;1.50;1.00;;;15.40;98.20;;;;;;4984439;28;20484;-83
2021/06/22 06:45:13;;;;;;;1.50;0.90;;;15.40;98.20;;;;;;4977585;28;20471;-81
2021/06/22 06:47:40;;;;;;;1.50;1.00;;;15.50;98.20;;;;;;4980419;28;20520;-80
2021/06/22 06:50:10;;;;;;;1.50;1.00;;;15.50;98.20;;;;;;4978705;28;20485;-82
2021/06/22 06:52:36;;;;;;;1.50;1.00;;;15.50;98.20;;;;;;4979834;28;20706;-84
2021/06/22 06:55:04;;;;;;;1.57;1.00;;;15.50;98.20;;;;;;4976656;28;20502;-80
2021/06/22 06:57:31;;;;;;;1.50;1.00;;;15.50;98.20;;;;;;4976664;28;20512;-82
2021/06/22 06:59:58;;;;;;;1.50;1.00;;;15.50;98.20;;;;;;4980115;28;20493;-78
2021/06/22 07:02:25;;;;;;;1.53;1.00;;;15.50;98.20;;;;;;4984156;28;20499;-79
2021/06/22 07:04:55;;;;;;;1.50;1.00;;;15.50;98.20;;;;;;4986115;28;20516;-80
2021/06/22 07:07:23;;;;;;;1.50;1.00;;;15.40;98.20;;;;;;4975776;28;20500;-79
2021/06/22 07:09:50;;;;;;;1.50;1.00;;;15.40;98.20;;;;;;4981028;28;21072;-79
2021/06/22 07:12:17;;;;;;;1.50;1.00;;;15.30;98.20;;;;;;4985341;28;20484;-78
2021/06/22 07:14:44;;;;;;;1.50;1.00;;;15.30;98.20;;;;;;4988021;28;20476;-80
2021/06/22 07:17:10;;;;;;;1.50;1.00;;;15.20;98.20;;;;;;4991556;28;20512;-82
2021/06/22 07:19:37;;;;;;;1.50;1.10;;;15.30;98.20;;;;;;4984558;28;20524;-78
2021/06/22 07:22:04;;;;;;;1.50;1.00;;;15.30;98.20;;;;;;4980507;28;20488;-78
2021/06/22 07:24:32;;;;;;;1.50;1.00;;;15.30;98.20;;;;;;4983346;28;20466;-81
2021/06/22 07:26:59;;;;;;;1.50;1.00;;;15.30;98.20;;;;;;4977004;28;20521;-81
2021/06/22 07:29:26;;;;;;;1.50;1.00;;;15.30;98.20;;;;;;4979004;28;20871;-80
2021/06/22 07:31:53;;;;;;;1.50;1.00;;;15.40;98.20;;;;;;4966849;28;20484;-80
2021/06/22 07:34:20;;;;;;;1.50;0.90;;;15.40;98.20;;;;;;4981494;28;21122;-79
2021/06/22 07:36:47;;;;;;;1.50;1.00;;;15.40;98.20;;;;;;4967988;28;20492;-83
2021/06/22 07:39:14;;;;;;;1.50;1.00;;;15.40;98.20;;;;;;4983025;28;20493;-81
2021/06/22 07:41:42;;;;;;;1.50;0.90;;;15.30;98.20;;;;;;4968310;28;21240;-79
2021/06/22 07:44:09;;;;;;;1.50;0.97;;;15.30;98.20;;;;;;4983320;28;20480;-78
2021/06/22 07:46:36;;;;;;;1.50;1.00;;;15.40;98.20;;;;;;4971808;28;21003;-79
2021/06/22 07:49:03;;;;;;;1.60;1.10;;;15.40;98.20;;;;;;4977931;28;20572;-77
2021/06/22 07:51:30;;;;;;;4.33;3.27;;;15.50;98.20;;;;;;4971824;28;20535;-80
2021/06/22 07:53:58;;;;;;;1.50;1.00;;;15.60;98.20;;;;;;4984808;28;20492;-77
2021/06/22 07:56:26;;;;;;;1.50;1.00;;;15.60;98.20;;;;;;4971328;28;20484;-80
2021/06/22 07:58:54;;;;;;;1.57;1.10;;;15.70;98.20;;;;;;4983415;28;20485;-78
2021/06/22 08:01:21;;;;;;;1.50;1.00;;;15.80;98.20;;;;;;4966893;28;20485;-81
2021/06/22 08:03:47;;;;;;;1.53;1.00;;;15.80;98.20;;;;;;4980756;28;20473;-80
2021/06/22 08:06:14;;;;;;;1.50;1.00;;;15.80;98.20;;;;;;4968190;28;20488;-81
2021/06/22 08:08:41;;;;;;;1.50;1.00;;;15.90;98.20;;;;;;4986775;28;20571;-81
2021/06/22 08:11:08;;;;;;;1.50;1.00;;;15.90;98.20;;;;;;4963915;28;20489;-78
2021/06/22 08:13:35;;;;;;;1.50;1.00;;;15.90;98.20;;;;;;4985224;28;20486;-79
2021/06/22 08:16:03;;;;;;;1.50;0.90;;;15.90;98.20;;;;;;4964345;28;20465;-80
2021/06/22 08:18:32;;;;;;;1.50;0.93;;;15.90;98.20;;;;;;4983905;28;20477;-77
2021/06/22 08:20:59;;;;;;;1.50;1.00;;;16.00;98.20;;;;;;4962191;28;20487;-78
2021/06/22 08:23:26;;;;;;;1.50;1.00;;;16.00;98.20;;;;;;4985932;28;20465;-77
2021/06/22 08:25:53;;;;;;;1.50;1.00;;;16.10;98.20;;;;;;4965110;28;20464;-80
2021/06/22 08:28:21;;;;;;;1.50;1.00;;;16.10;98.20;;;;;;4986630;28;20466;-81
2021/06/22 08:30:51;;;;;;;1.50;1.00;;;16.30;98.20;;;;;;4966772;28;20532;-81
2021/06/22 08:33:19;;;;;;;1.50;1.00;;;16.50;98.20;;;;;;4984927;28;20489;-80
2021/06/22 08:35:47;;;;;;;1.50;1.00;;;16.60;98.20;;;;;;4973056;28;20992;-81
2021/06/22 08:38:16;;;;;;;1.50;1.00;;;16.70;98.10;;;;;;4985642;28;20987;-82
2021/06/22 08:40:44;;;;;;;1.57;1.00;;;16.80;97.50;;;;;;4981512;28;20493;-81
2021/06/22 08:43:13;;;;;;;1.50;1.00;;;16.90;96.80;;;;;;4973960;28;20486;-82
2021/06/22 08:45:41;;;;;;;1.50;1.00;;;16.90;97.40;;;;;;4975882;28;20950;-83
2021/06/22 08:48:09;;;;;;;1.50;1.00;;;17.00;96.70;;;;;;4977268;28;20505;-81
2021/06/22 08:50:38;;;;;;;1.50;1.00;;;17.10;96.30;;;;;;4976549;28;20516;-81
2021/06/22 08:53:05;;;;;;;1.50;1.00;;;17.00;95.70;;;;;;4976109;28;20489;-82
2021/06/22 08:55:33;;;;;;;1.53;1.00;;;17.00;95.60;;;;;;4974351;28;20852;-81
2021/06/22 08:58:01;;;;;;;1.50;0.90;;;16.90;95.90;;;;;;4976582;28;20523;-78
2021/06/22 09:00:30;;;;;;;1.50;1.00;;;16.90;96.20;;;;;;4971047;28;21005;-80
2021/06/22 09:03:15;;;;;;;1.50;1.10;;;16.80;96.20;;;;;;4983567;28;21070;-81
2021/06/22 09:05:45;;;;;;;1.50;0.97;;;16.80;96.30;;;;;;4970593;28;20465;-81
2021/06/22 09:08:21;;;;;;;1.50;1.00;;;16.90;96.40;;;;;;4959618;28;20488;-81
2021/06/22 09:10:49;;;;;;;1.53;1.00;;;17.00;95.80;;;;;;4959869;28;20532;-81
2021/06/22 09:13:18;;;;;;;1.50;1.00;;;17.10;95.90;;;;;;4982394;28;20497;-84
2021/06/22 09:15:46;;;;;;;1.50;1.00;;;17.20;95.60;;;;;;4967524;28;20840;-82
2021/06/22 09:18:28;;;;;;;1.50;1.00;;;17.30;95.00;;;;;;4958902;28;20481;-82
2021/06/22 09:20:58;;;;;;;1.50;1.00;;;17.40;94.30;;;;;;4965201;28;20572;-82
2021/06/22 09:23:26;;;;;;;1.50;0.97;;;17.40;94.00;;;;;;4982237;28;20474;-79
2021/06/22 09:25:55;;;;;;;1.50;1.00;;;17.50;94.00;;;;;;4955129;28;20462;-81
2021/06/22 09:28:26;;;;;;;1.50;0.90;;;17.60;94.10;;;;;;4980927;28;20458;-82
2021/06/22 09:30:56;;;;;;;1.50;1.00;;;17.80;93.80;;;;;;4955626;28;20573;-84
2021/06/22 09:33:30;;;;;;;1.50;1.00;;;18.00;92.80;;;;;;4978832;28;20525;-81
2021/06/22 09:36:17;;;;;;;1.50;1.00;;;18.10;92.30;;;;;;4957001;28;20473;-84
2021/06/22 09:38:48;;;;;;;1.50;0.90;;;18.30;93.60;;;;;;4985172;28;20469;-83
2021/06/22 09:41:21;;;;;;;1.50;0.90;;;18.40;92.10;;;;;;4963363;28;20515;-82
2021/06/22 09:43:51;;;;;;;1.53;0.90;;;18.50;91.50;;;;;;4978698;28;20554;-83
2021/06/22 09:46:34;;;;;;;1.53;0.90;;;18.50;91.40;;;;;;4967280;28;20488;-82
2021/06/22 09:49:01;;;;;;;1.50;1.00;;;18.50;92.40;;;;;;4976614;28;20483;-82
2021/06/22 09:51:32;;;;;;;1.50;0.90;;;18.50;91.80;;;;;;4966056;28;20567;-83
2021/06/22 09:54:11;;;;;;;1.50;0.90;;;18.60;91.60;;;;;;4974441;28;20497;-81
2021/06/22 09:56:38;;;;;;;1.50;1.00;;;18.70;91.00;;;;;;4968614;28;20495;-81
2021/06/22 09:59:09;;;;;;;1.50;0.90;;;18.70;91.00;;;;;;4981685;28;20913;-82
2021/06/22 10:01:37;;;;;;;1.50;1.00;;;18.80;91.50;;;;;;4973603;28;20485;-81
2021/06/22 10:04:20;;;;;;;1.53;1.00;;;19.00;90.90;;;;;;4977212;28;20474;-81
2021/06/22 10:06:53;;;;;;;1.57;1.00;;;19.30;88.30;;;;;;4973821;28;20485;-80
2021/06/22 10:09:22;;;;;;;1.53;0.90;;;19.40;88.30;;;;;;4983018;28;20501;-82
2021/06/22 10:12:00;;;;;;;1.50;0.90;;;19.40;87.90;;;;;;4988215;23;20484;-79
2021/06/22 10:14:28;;;;;;;1.50;0.90;;;19.50;88.80;;;;;;4975005;28;20583;-78
2021/06/22 10:16:58;;;;;;;1.50;0.90;;;19.50;87.90;;;;;;4968331;28;20532;-83
2021/06/22 10:19:26;;;;;;;1.50;0.90;;;19.50;87.60;;;;;;4974735;28;20831;-80
2021/06/22 10:21:55;;;;;;;1.50;0.90;;;19.60;87.60;;;;;;4966462;28;20544;-80
2021/06/22 10:24:23;;;;;;;1.57;1.00;;;19.60;86.70;;;;;;4975427;28;20904;-79
2021/06/22 10:26:50;;;;;;;1.50;0.90;;;19.70;86.80;;;;;;4965867;28;20575;-78
2021/06/22 10:29:19;;;;;;;1.50;0.90;;;19.80;87.50;;;;;;4975950;28;20476;-79
2021/06/22 10:31:47;;;;;;;1.50;0.90;;;19.80;87.10;;;;;;4970118;28;20486;-80
2021/06/22 10:34:14;;;;;;;1.50;0.90;;;19.70;86.80;;;;;;4979286;28;20504;-80
2021/06/22 10:36:48;;;;;;;1.60;1.00;;;19.60;86.50;;;;;;4969333;28;20485;-80
2021/06/22 10:39:21;;;;;;;1.50;0.90;;;19.60;87.10;;;;;;4979755;28;20497;-80
2021/06/22 10:41:49;;;;;;;1.50;1.00;;;19.50;87.70;;;;;;4971408;28;20499;-80
2021/06/22 10:44:37;;;;;;;1.50;0.90;;;19.40;88.00;;;;;;4979773;28;20954;-79
2021/06/22 10:47:25;;;;;;;1.50;0.90;;;19.50;88.70;;;;;;4972972;28;20551;-79
2021/06/22 10:50:06;;;;;;;1.50;0.93;;;19.50;87.00;;;;;;4972941;28;20465;-78
2021/06/22 10:52:59;;;;;;;1.50;0.90;;;19.70;87.30;;;;;;4976405;28;20481;-80
2021/06/22 10:55:58;;;;;;;1.50;1.10;;;19.70;87.10;;;;;;4969365;28;20489;-77
2021/06/22 10:58:25;;;;;;;1.50;0.90;;;19.80;86.50;;;;;;4884323;29;20486;-83
2021/06/22 11:01:17;;;;;;;1.50;0.90;;;19.80;86.30;;;;;;4945942;28;20859;-79
2021/06/22 11:03:44;;;;;;;1.50;0.90;;;19.70;86.10;;;;;;4980246;28;20458;-79
2021/06/22 11:06:29;;;;;;;1.50;0.90;;;19.60;86.00;;;;;;4967695;28;20480;-79
2021/06/22 11:09:19;;;;;;;1.50;0.90;;;19.40;87.10;;;;;;4971202;28;20469;-78
2021/06/22 11:11:48;;;;;;;1.50;0.90;;;19.40;87.20;;;;;;4965390;28;20492;-81
2021/06/22 11:14:16;;;;;;;1.50;0.90;;;19.50;86.50;;;;;;4974163;28;20494;-82
2021/06/22 11:16:46;;;;;;;1.50;0.90;;;19.60;86.30;;;;;;4965048;28;20556;-79
2021/06/22 11:19:14;;;;;;;1.50;0.90;;;19.70;86.10;;;;;;4978614;28;20476;-80
2021/06/22 11:21:56;;;;;;;1.50;1.00;;;19.70;86.40;;;;;;4970815;28;20485;-79
2021/06/22 11:24:29;;;;;;;1.50;0.90;;;20.00;86.30;;;;;;4979225;28;20541;-80
2021/06/22 11:27:07;;;;;;;1.50;0.90;;;20.10;86.10;;;;;;4973143;28;20902;-79
2021/06/22 11:29:58;;;;;;;1.50;0.90;;;20.20;85.50;;;;;;4973040;28;21040;-79
2021/06/22 11:32:39;;;;;;;1.50;0.90;;;20.40;85.50;;;;;;4956949;28;20496;-79
2021/06/22 11:35:18;;;;;;;1.50;1.00;;;20.50;84.30;;;;;;4968960;28;20571;-80
2021/06/22 11:37:46;;;;;;;1.50;0.90;;;20.40;84.50;;;;;;4965213;28;20492;-79
2021/06/22 11:40:21;;;;;;;1.50;0.90;;;20.40;84.60;;;;;;4969701;28;20469;-79
2021/06/22 11:43:07;;;;;;;1.50;1.00;;;20.30;84.80;;;;;;4973232;28;21001;-80
2021/06/22 11:45:34;;;;;;;1.50;0.90;;;20.20;84.70;;;;;;4969756;28;20554;-80
2021/06/22 11:48:03;;;;;;;1.50;0.90;;;20.00;85.10;;;;;;4972486;28;20485;-80
2021/06/22 11:50:48;;;;;;;1.50;1.00;;;20.00;85.40;;;;;;4970921;28;21110;-79
2021/06/22 11:53:15;;;;;;;1.50;0.93;;;20.00;85.30;;;;;;4958227;28;20513;-81
2021/06/22 11:55:51;;;;;;;1.50;0.97;;;19.90;85.80;;;;;;4970520;28;21107;-80
2021/06/22 11:58:24;;;;;;;1.50;0.90;;;19.80;86.70;;;;;;4957902;28;20580;-79
2021/06/22 12:00:55;;;;;;;1.50;0.90;;;19.80;86.10;;;;;;4971221;28;20549;-81
2021/06/22 12:03:31;;;;;;;1.50;0.90;;;19.70;86.20;;;;;;4959113;28;20521;-81
2021/06/22 12:06:09;;;;;;;1.50;1.00;;;19.60;86.10;;;;;;4963194;28;20827;-78
2021/06/22 12:08:42;;;;;;;1.50;0.90;;;19.60;86.80;;;;;;4975946;28;20921;-80
2021/06/22 12:11:09;;;;;;;1.50;0.90;;;19.50;86.20;;;;;;4963739;28;21030;-79
2021/06/22 12:14:07;;;;;;;1.50;0.90;;;19.40;86.30;;;;;;4979374;28;20477;-80
2021/06/22 12:16:33;;;;;;;1.50;0.90;;;19.40;86.90;;;;;;4964528;28;20771;-80
2021/06/22 12:19:04;;;;;;;1.50;0.90;;;19.40;86.70;;;;;;4975526;28;20929;-80
2021/06/22 12:21:34;;;;;;;1.50;0.90;;;19.40;87.10;;;;;;4964572;28;20932;-79
2021/06/22 12:24:03;;;;;;;1.50;0.90;;;19.40;87.00;;;;;;4975391;28;20461;-79
2021/06/22 12:26:33;;;;;;;1.50;0.90;;;19.30;87.00;;;;;;4965004;28;20487;-80
2021/06/22 12:29:01;;;;;;;1.50;0.93;;;19.20;87.30;;;;;;4976594;28;20466;-79
2021/06/22 12:31:28;;;;;;;1.50;0.90;;;19.10;87.60;;;;;;4962431;28;20497;-81
2021/06/22 12:34:02;;;;;;;1.50;0.90;;;19.10;88.90;;;;;;4977331;28;20461;-81
2021/06/22 12:36:34;;;;;;;1.50;1.00;;;18.90;89.00;;;;;;4964986;28;21326;-82
2021/06/22 12:39:04;;;;;;;1.70;1.47;;;18.90;90.10;;;;;;4975516;28;20546;-80
2021/06/22 12:41:31;;;;;;;1.80;1.20;;;18.80;90.40;;;;;;4965146;28;20484;-82
2021/06/22 12:43:58;;;;;;;1.50;1.00;;;18.80;90.80;;;;;;4974679;28;20469;-81
2021/06/22 12:46:28;;;;;;;1.50;0.90;;;18.70;90.50;;;;;;4965214;28;20508;-80
2021/06/22 12:48:58;;;;;;;1.50;1.00;;;18.70;91.40;;;;;;4976074;28;20472;-81
2021/06/22 12:51:26;;;;;;;1.50;0.90;;;18.70;91.90;;;;;;4967060;28;20497;-81
2021/06/22 12:53:53;;;;;;;1.50;0.90;;;18.70;92.50;;;;;;4980164;28;20469;-80
2021/06/22 12:56:23;;;;;;;1.50;1.00;;;18.70;92.40;;;;;;4966428;28;20511;-81
2021/06/22 12:58:52;;;;;;;1.50;0.90;;;18.60;92.70;;;;;;4981340;28;20939;-81
2021/06/22 13:01:33;;;;;;;1.50;0.90;;;18.60;93.10;;;;;;4965621;28;20492;-81